sensor_id;sensor_type;location;lat;lon;timestamp;temperature;humidity
34837;DHT22;21053;50.848;4.652;2023-01-04T00:01:22;10.20;99.90
34837;DHT22;21053;50.848;4.652;2023-01-04T00:03:51;10.20;99.90
34837;DHT22;21053;50.848;4.652;2023-01-04T00:06:19;10.20;99.90
34837;DHT22;21053;50.848;4.652;2023-01-04T00:08:48;10.20;99.90
34837;DHT22;21053;50.848;4.652;2023-01-04T00:11:19;10.30;99.90
34837;DHT22;21053;50.848;4.652;2023-01-04T00:13:47;10.30;99.90
34837;DHT22;21053;50.848;4.652;2023-01-04T00:16:17;10.30;99.90
34837;DHT22;21053;50.848;4.652;2023-01-04T00:18:47;10.10;99.90
34837;DHT22;21053;50.848;4.652;2023-01-04T00:21:24;10.20;99.90
34837;DHT22;21053;50.848;4.652;2023-01-04T00:23:54;10.20;99.90
34837;DHT22;21053;50.848;4.652;2023-01-04T00:26:29;10.30;99.90
34837;DHT22;21053;50.848;4.652;2023-01-04T00:29:05;10.20;99.90
34837;DHT22;21053;50.848;4.652;2023-01-04T00:31:33;10.20;99.90
34837;DHT22;21053;50.848;4.652;2023-01-04T00:34:02;10.20;99.90
34837;DHT22;21053;50.848;4.652;2023-01-04T00:36:36;10.30;99.90
34837;DHT22;21053;50.848;4.652;2023-01-04T00:39:04;10.30;99.90
34837;DHT22;21053;50.848;4.652;2023-01-04T00:41:38;10.40;99.90
34837;DHT22;21053;50.848;4.652;2023-01-04T00:44:06;10.30;99.90
34837;DHT22;21053;50.848;4.652;2023-01-04T00:46:34;10.40;99.90
34837;DHT22;21053;50.848;4.652;2023-01-04T00:49:00;10.40;99.90
34837;DHT22;21053;50.848;4.652;2023-01-04T00:51:30;10.30;99.90
34837;DHT22;21053;50.848;4.652;2023-01-04T00:53:58;10.40;99.90
34837;DHT22;21053;50.848;4.652;2023-01-04T00:56:24;10.40;99.90
34837;DHT22;21053;50.848;4.652;2023-01-04T00:58:56;10.50;99.90
34837;DHT22;21053;50.848;4.652;2023-01-04T01:01:22;10.40;99.90
34837;DHT22;21053;50.848;4.652;2023-01-04T01:04:02;10.40;99.90
34837;DHT22;21053;50.848;4.652;2023-01-04T01:06:32;10.40;99.90
34837;DHT22;21053;50.848;4.652;2023-01-04T01:09:00;10.50;99.90
34837;DHT22;21053;50.848;4.652;2023-01-04T01:11:28;10.50;99.90
34837;DHT22;21053;50.848;4.652;2023-01-04T01:16:56;10.40;99.90
34837;DHT22;21053;50.848;4.652;2023-01-04T01:19:28;10.30;99.90
34837;DHT22;21053;50.848;4.652;2023-01-04T01:21:56;10.40;99.90
34837;DHT22;21053;50.848;4.652;2023-01-04T01:24:22;10.30;99.90
34837;DHT22;21053;50.848;4.652;2023-01-04T01:26:50;10.40;99.90
34837;DHT22;21053;50.848;4.652;2023-01-04T01:29:19;10.50;99.90
34837;DHT22;21053;50.848;4.652;2023-01-04T01:31:47;10.40;99.90
34837;DHT22;21053;50.848;4.652;2023-01-04T01:34:15;10.40;99.90
34837;DHT22;21053;50.848;4.652;2023-01-04T01:36:43;10.50;99.90
34837;DHT22;21053;50.848;4.652;2023-01-04T01:39:10;10.40;99.90
34837;DHT22;21053;50.848;4.652;2023-01-04T01:41:39;10.50;99.90
34837;DHT22;21053;50.848;4.652;2023-01-04T01:47:16;10.50;99.90
34837;DHT22;21053;50.848;4.652;2023-01-04T01:49:45;10.70;99.90
34837;DHT22;21053;50.848;4.652;2023-01-04T01:52:19;10.60;99.90
34837;DHT22;21053;50.848;4.652;2023-01-04T01:54:50;10.70;99.90
34837;DHT22;21053;50.848;4.652;2023-01-04T01:57:19;10.50;99.90
34837;DHT22;21053;50.848;4.652;2023-01-04T01:59:50;10.50;99.90
34837;DHT22;21053;50.848;4.652;2023-01-04T02:02:18;10.70;99.90
34837;DHT22;21053;50.848;4.652;2023-01-04T02:05:14;10.60;99.90
34837;DHT22;21053;50.848;4.652;2023-01-04T02:07:40;10.60;99.90
34837;DHT22;21053;50.848;4.652;2023-01-04T02:10:07;10.50;99.90
34837;DHT22;21053;50.848;4.652;2023-01-04T02:12:36;10.50;99.90
34837;DHT22;21053;50.848;4.652;2023-01-04T02:15:06;11.50;99.90
34837;DHT22;21053;50.848;4.652;2023-01-04T02:20:19;10.60;99.90
34837;DHT22;21053;50.848;4.652;2023-01-04T02:32:06;10.80;99.90
34837;DHT22;21053;50.848;4.652;2023-01-04T02:40:16;10.90;99.90
34837;DHT22;21053;50.848;4.652;2023-01-04T02:46:30;11.00;99.90
34837;DHT22;21053;50.848;4.652;2023-01-04T02:49:01;11.00;99.90
34837;DHT22;21053;50.848;4.652;2023-01-04T02:51:48;11.00;99.90
34837;DHT22;21053;50.848;4.652;2023-01-04T02:54:18;11.10;99.90
34837;DHT22;21053;50.848;4.652;2023-01-04T02:57:06;11.00;99.90
34837;DHT22;21053;50.848;4.652;2023-01-04T03:02:57;11.10;99.90
34837;DHT22;21053;50.848;4.652;2023-01-04T03:05:47;11.10;99.90
34837;DHT22;21053;50.848;4.652;2023-01-04T03:11:37;11.20;99.90
34837;DHT22;21053;50.848;4.652;2023-01-04T03:14:27;11.20;99.90
34837;DHT22;21053;50.848;4.652;2023-01-04T03:16:55;11.20;99.90
34837;DHT22;21053;50.848;4.652;2023-01-04T03:19:24;11.20;99.90
34837;DHT22;21053;50.848;4.652;2023-01-04T03:22:14;11.20;99.90
34837;DHT22;21053;50.848;4.652;2023-01-04T03:25:06;11.20;99.90
34837;DHT22;21053;50.848;4.652;2023-01-04T03:27:53;11.10;99.90
34837;DHT22;21053;50.848;4.652;2023-01-04T03:30:44;11.20;99.90
34837;DHT22;21053;50.848;4.652;2023-01-04T03:33:29;11.30;99.90
34837;DHT22;21053;50.848;4.652;2023-01-04T03:36:41;11.30;99.90
34837;DHT22;21053;50.848;4.652;2023-01-04T03:41:53;11.30;99.90
34837;DHT22;21053;50.848;4.652;2023-01-04T03:48:21;11.30;99.90
34837;DHT22;21053;50.848;4.652;2023-01-04T03:51:17;11.20;99.90
34837;DHT22;21053;50.848;4.652;2023-01-04T03:53:58;11.70;99.90
34837;DHT22;21053;50.848;4.652;2023-01-04T03:56:27;11.80;99.90
34837;DHT22;21053;50.848;4.652;2023-01-04T03:58:56;11.30;99.90
34837;DHT22;21053;50.848;4.652;2023-01-04T04:01:26;11.30;99.90
34837;DHT22;21053;50.848;4.652;2023-01-04T04:03:55;11.40;99.90
34837;DHT22;21053;50.848;4.652;2023-01-04T04:06:41;11.50;99.90
34837;DHT22;21053;50.848;4.652;2023-01-04T04:09:26;11.60;99.90
34837;DHT22;21053;50.848;4.652;2023-01-04T04:11:52;11.60;99.90
34837;DHT22;21053;50.848;4.652;2023-01-04T04:14:20;11.60;99.90
34837;DHT22;21053;50.848;4.652;2023-01-04T04:16:47;11.60;99.90
34837;DHT22;21053;50.848;4.652;2023-01-04T04:19:15;11.70;99.90
34837;DHT22;21053;50.848;4.652;2023-01-04T04:21:44;11.70;99.90
34837;DHT22;21053;50.848;4.652;2023-01-04T04:24:23;11.60;99.90
34837;DHT22;21053;50.848;4.652;2023-01-04T04:26:52;11.60;99.90
34837;DHT22;21053;50.848;4.652;2023-01-04T04:29:23;11.70;99.90
34837;DHT22;21053;50.848;4.652;2023-01-04T04:31:50;11.70;99.90
34837;DHT22;21053;50.848;4.652;2023-01-04T04:34:19;11.80;99.90
34837;DHT22;21053;50.848;4.652;2023-01-04T04:36:48;11.80;99.90
34837;DHT22;21053;50.848;4.652;2023-01-04T04:39:13;11.80;99.90
34837;DHT22;21053;50.848;4.652;2023-01-04T04:41:42;11.80;99.90
34837;DHT22;21053;50.848;4.652;2023-01-04T04:44:16;11.90;99.90
34837;DHT22;21053;50.848;4.652;2023-01-04T04:46:43;12.00;99.90
34837;DHT22;21053;50.848;4.652;2023-01-04T04:49:10;11.90;99.90
34837;DHT22;21053;50.848;4.652;2023-01-04T04:51:38;12.00;99.90
34837;DHT22;21053;50.848;4.652;2023-01-04T04:54:04;12.10;99.90
34837;DHT22;21053;50.848;4.652;2023-01-04T04:56:32;12.10;99.90
34837;DHT22;21053;50.848;4.652;2023-01-04T04:59:00;12.10;99.90
34837;DHT22;21053;50.848;4.652;2023-01-04T05:01:29;12.10;99.90
34837;DHT22;21053;50.848;4.652;2023-01-04T05:03:55;12.00;99.90
34837;DHT22;21053;50.848;4.652;2023-01-04T05:06:21;11.90;99.90
34837;DHT22;21053;50.848;4.652;2023-01-04T05:08:50;11.90;99.90
34837;DHT22;21053;50.848;4.652;2023-01-04T05:11:18;12.10;99.90
34837;DHT22;21053;50.848;4.652;2023-01-04T05:14:04;12.10;99.90
34837;DHT22;21053;50.848;4.652;2023-01-04T05:16:31;12.00;99.90
34837;DHT22;21053;50.848;4.652;2023-01-04T05:18:57;11.90;99.90
34837;DHT22;21053;50.848;4.652;2023-01-04T05:21:25;12.00;99.90
34837;DHT22;21053;50.848;4.652;2023-01-04T05:23:54;12.00;99.90
34837;DHT22;21053;50.848;4.652;2023-01-04T05:26:22;12.90;99.90
34837;DHT22;21053;50.848;4.652;2023-01-04T05:28:50;12.10;99.90
34837;DHT22;21053;50.848;4.652;2023-01-04T05:31:19;12.10;99.90
34837;DHT22;21053;50.848;4.652;2023-01-04T05:33:47;12.20;99.90
34837;DHT22;21053;50.848;4.652;2023-01-04T05:36:14;12.10;99.90
34837;DHT22;21053;50.848;4.652;2023-01-04T05:38:40;12.20;99.90
34837;DHT22;21053;50.848;4.652;2023-01-04T05:41:08;12.20;99.90
34837;DHT22;21053;50.848;4.652;2023-01-04T05:43:55;12.20;99.90
34837;DHT22;21053;50.848;4.652;2023-01-04T05:46:23;12.10;99.90
34837;DHT22;21053;50.848;4.652;2023-01-04T05:48:50;12.20;99.90
34837;DHT22;21053;50.848;4.652;2023-01-04T05:51:16;12.10;99.90
34837;DHT22;21053;50.848;4.652;2023-01-04T05:53:44;12.10;99.90
34837;DHT22;21053;50.848;4.652;2023-01-04T05:56:13;12.20;99.90
34837;DHT22;21053;50.848;4.652;2023-01-04T05:58:40;12.20;99.90
34837;DHT22;21053;50.848;4.652;2023-01-04T06:01:06;12.30;99.90
34837;DHT22;21053;50.848;4.652;2023-01-04T06:03:35;12.40;99.90
34837;DHT22;21053;50.848;4.652;2023-01-04T06:06:04;12.20;99.90
34837;DHT22;21053;50.848;4.652;2023-01-04T06:08:32;12.20;99.90
34837;DHT22;21053;50.848;4.652;2023-01-04T06:10:58;12.20;99.90
34837;DHT22;21053;50.848;4.652;2023-01-04T06:13:27;12.30;99.90
34837;DHT22;21053;50.848;4.652;2023-01-04T06:15:59;12.40;99.90
34837;DHT22;21053;50.848;4.652;2023-01-04T06:18:26;12.40;99.90
34837;DHT22;21053;50.848;4.652;2023-01-04T06:20:52;12.30;99.90
34837;DHT22;21053;50.848;4.652;2023-01-04T06:23:18;12.30;99.90
34837;DHT22;21053;50.848;4.652;2023-01-04T06:25:46;12.40;99.90
34837;DHT22;21053;50.848;4.652;2023-01-04T06:28:13;12.40;99.90
34837;DHT22;21053;50.848;4.652;2023-01-04T06:30:41;12.30;99.90
34837;DHT22;21053;50.848;4.652;2023-01-04T06:33:08;12.20;99.90
34837;DHT22;21053;50.848;4.652;2023-01-04T06:35:34;12.30;99.90
34837;DHT22;21053;50.848;4.652;2023-01-04T06:38:01;12.40;99.90
34837;DHT22;21053;50.848;4.652;2023-01-04T06:40:27;12.40;99.90
34837;DHT22;21053;50.848;4.652;2023-01-04T06:42:56;12.30;99.90
34837;DHT22;21053;50.848;4.652;2023-01-04T06:45:22;12.40;99.90
34837;DHT22;21053;50.848;4.652;2023-01-04T06:47:48;12.30;99.90
34837;DHT22;21053;50.848;4.652;2023-01-04T06:50:15;12.30;99.90
34837;DHT22;21053;50.848;4.652;2023-01-04T06:52:43;12.20;99.90
34837;DHT22;21053;50.848;4.652;2023-01-04T06:55:12;12.30;99.90
34837;DHT22;21053;50.848;4.652;2023-01-04T06:57:39;12.40;99.90
34837;DHT22;21053;50.848;4.652;2023-01-04T07:00:06;12.40;99.90
34837;DHT22;21053;50.848;4.652;2023-01-04T07:02:35;12.50;99.90
34837;DHT22;21053;50.848;4.652;2023-01-04T07:05:01;12.50;99.90
34837;DHT22;21053;50.848;4.652;2023-01-04T07:07:33;12.40;99.90
34837;DHT22;21053;50.848;4.652;2023-01-04T07:10:02;12.40;99.90
34837;DHT22;21053;50.848;4.652;2023-01-04T07:12:31;12.40;99.90
34837;DHT22;21053;50.848;4.652;2023-01-04T07:15:00;12.50;99.90
34837;DHT22;21053;50.848;4.652;2023-01-04T07:17:27;12.60;99.90
34837;DHT22;21053;50.848;4.652;2023-01-04T07:19:55;12.50;99.90
34837;DHT22;21053;50.848;4.652;2023-01-04T07:22:24;12.50;99.90
34837;DHT22;21053;50.848;4.652;2023-01-04T07:27:22;12.60;99.90
34837;DHT22;21053;50.848;4.652;2023-01-04T07:29:49;12.40;99.90
34837;DHT22;21053;50.848;4.652;2023-01-04T07:32:17;12.60;99.90
34837;DHT22;21053;50.848;4.652;2023-01-04T07:34:43;12.50;99.90
34837;DHT22;21053;50.848;4.652;2023-01-04T07:37:12;12.60;99.90
34837;DHT22;21053;50.848;4.652;2023-01-04T07:39:40;12.70;99.90
34837;DHT22;21053;50.848;4.652;2023-01-04T07:42:09;12.70;99.90
34837;DHT22;21053;50.848;4.652;2023-01-04T07:44:36;12.70;99.90
34837;DHT22;21053;50.848;4.652;2023-01-04T07:47:04;12.90;99.90
34837;DHT22;21053;50.848;4.652;2023-01-04T07:49:31;12.80;99.90
34837;DHT22;21053;50.848;4.652;2023-01-04T07:51:59;12.90;99.90
34837;DHT22;21053;50.848;4.652;2023-01-04T07:54:28;12.80;99.90
34837;DHT22;21053;50.848;4.652;2023-01-04T07:56:54;12.80;99.90
34837;DHT22;21053;50.848;4.652;2023-01-04T07:59:20;12.90;99.90
34837;DHT22;21053;50.848;4.652;2023-01-04T08:01:47;12.80;99.90
34837;DHT22;21053;50.848;4.652;2023-01-04T08:04:16;12.90;99.90
34837;DHT22;21053;50.848;4.652;2023-01-04T08:06:43;13.10;99.90
34837;DHT22;21053;50.848;4.652;2023-01-04T08:09:15;12.90;99.90
34837;DHT22;21053;50.848;4.652;2023-01-04T08:11:43;12.90;99.90
34837;DHT22;21053;50.848;4.652;2023-01-04T08:14:12;13.00;99.90
34837;DHT22;21053;50.848;4.652;2023-01-04T08:16:41;12.90;99.90
34837;DHT22;21053;50.848;4.652;2023-01-04T08:19:15;13.00;99.90
34837;DHT22;21053;50.848;4.652;2023-01-04T08:21:45;13.00;99.90
34837;DHT22;21053;50.848;4.652;2023-01-04T08:24:16;12.90;99.90
34837;DHT22;21053;50.848;4.652;2023-01-04T08:26:45;13.00;99.90
34837;DHT22;21053;50.848;4.652;2023-01-04T08:29:14;12.80;99.90
34837;DHT22;21053;50.848;4.652;2023-01-04T08:31:40;12.90;99.90
34837;DHT22;21053;50.848;4.652;2023-01-04T08:34:07;13.00;99.90
34837;DHT22;21053;50.848;4.652;2023-01-04T08:36:47;12.80;99.90
34837;DHT22;21053;50.848;4.652;2023-01-04T08:39:16;12.90;99.90
34837;DHT22;21053;50.848;4.652;2023-01-04T08:41:43;12.90;99.90
34837;DHT22;21053;50.848;4.652;2023-01-04T08:44:23;12.90;99.90
34837;DHT22;21053;50.848;4.652;2023-01-04T08:46:50;12.80;99.90
34837;DHT22;21053;50.848;4.652;2023-01-04T08:49:18;12.80;99.90
34837;DHT22;21053;50.848;4.652;2023-01-04T08:51:46;12.90;99.90
34837;DHT22;21053;50.848;4.652;2023-01-04T08:54:15;12.90;99.90
34837;DHT22;21053;50.848;4.652;2023-01-04T08:57:14;12.80;99.90
34837;DHT22;21053;50.848;4.652;2023-01-04T08:59:45;13.00;99.90
34837;DHT22;21053;50.848;4.652;2023-01-04T09:02:27;12.90;99.90
34837;DHT22;21053;50.848;4.652;2023-01-04T09:04:56;13.00;99.90
34837;DHT22;21053;50.848;4.652;2023-01-04T09:07:29;13.00;99.90
34837;DHT22;21053;50.848;4.652;2023-01-04T09:09:57;13.10;99.90
34837;DHT22;21053;50.848;4.652;2023-01-04T09:12:25;13.20;99.90
34837;DHT22;21053;50.848;4.652;2023-01-04T09:14:51;13.30;99.90
34837;DHT22;21053;50.848;4.652;2023-01-04T09:17:16;13.20;99.90
34837;DHT22;21053;50.848;4.652;2023-01-04T09:19:45;13.20;99.90
34837;DHT22;21053;50.848;4.652;2023-01-04T09:22:14;13.30;99.90
34837;DHT22;21053;50.848;4.652;2023-01-04T09:24:46;13.40;99.90
34837;DHT22;21053;50.848;4.652;2023-01-04T09:27:11;13.30;99.90
34837;DHT22;21053;50.848;4.652;2023-01-04T09:29:40;13.30;99.90
34837;DHT22;21053;50.848;4.652;2023-01-04T09:32:09;13.50;99.90
34837;DHT22;21053;50.848;4.652;2023-01-04T09:34:35;13.40;99.90
34837;DHT22;21053;50.848;4.652;2023-01-04T09:37:02;13.50;99.90
34837;DHT22;21053;50.848;4.652;2023-01-04T09:39:29;13.60;99.90
34837;DHT22;21053;50.848;4.652;2023-01-04T09:42:00;13.60;99.90
34837;DHT22;21053;50.848;4.652;2023-01-04T09:44:38;13.50;99.90
34837;DHT22;21053;50.848;4.652;2023-01-04T09:47:15;13.50;99.90
34837;DHT22;21053;50.848;4.652;2023-01-04T09:52:16;13.60;99.90
34837;DHT22;21053;50.848;4.652;2023-01-04T09:54:57;13.60;99.90
34837;DHT22;21053;50.848;4.652;2023-01-04T09:57:34;13.60;99.90
34837;DHT22;21053;50.848;4.652;2023-01-04T10:00:12;13.60;99.90
34837;DHT22;21053;50.848;4.652;2023-01-04T10:05:32;13.60;99.90
34837;DHT22;21053;50.848;4.652;2023-01-04T10:08:01;13.50;99.90
34837;DHT22;21053;50.848;4.652;2023-01-04T10:22:26;13.60;99.90
34837;DHT22;21053;50.848;4.652;2023-01-04T10:24:58;13.70;99.90
34837;DHT22;21053;50.848;4.652;2023-01-04T10:27:44;13.60;99.90
34837;DHT22;21053;50.848;4.652;2023-01-04T10:31:14;13.60;99.90
34837;DHT22;21053;50.848;4.652;2023-01-04T10:33:31;13.70;99.90
34837;DHT22;21053;50.848;4.652;2023-01-04T10:36:00;13.60;99.90
34837;DHT22;21053;50.848;4.652;2023-01-04T10:38:31;13.50;99.90
34837;DHT22;21053;50.848;4.652;2023-01-04T10:41:06;13.50;99.90
34837;DHT22;21053;50.848;4.652;2023-01-04T10:49:47;13.70;99.90
34837;DHT22;21053;50.848;4.652;2023-01-04T10:52:22;13.50;99.90
34837;DHT22;21053;50.848;4.652;2023-01-04T10:54:56;13.40;99.90
34837;DHT22;21053;50.848;4.652;2023-01-04T10:57:43;13.50;99.90
34837;DHT22;21053;50.848;4.652;2023-01-04T11:00:29;13.50;99.90
34837;DHT22;21053;50.848;4.652;2023-01-04T11:03:12;13.50;99.90
34837;DHT22;21053;50.848;4.652;2023-01-04T11:05:52;13.50;99.90
34837;DHT22;21053;50.848;4.652;2023-01-04T11:08:44;13.60;99.90
34837;DHT22;21053;50.848;4.652;2023-01-04T11:11:22;13.50;99.90
34837;DHT22;21053;50.848;4.652;2023-01-04T11:14:25;13.60;99.90
34837;DHT22;21053;50.848;4.652;2023-01-04T11:16:58;13.50;99.90
34837;DHT22;21053;50.848;4.652;2023-01-04T11:19:28;13.50;99.90
34837;DHT22;21053;50.848;4.652;2023-01-04T11:24:30;13.60;99.90
34837;DHT22;21053;50.848;4.652;2023-01-04T11:26:58;13.60;99.90
34837;DHT22;21053;50.848;4.652;2023-01-04T11:29:40;13.60;99.90
34837;DHT22;21053;50.848;4.652;2023-01-04T11:32:20;13.50;99.90
34837;DHT22;21053;50.848;4.652;2023-01-04T11:34:53;13.60;99.90
34837;DHT22;21053;50.848;4.652;2023-01-04T11:37:38;13.60;99.90
34837;DHT22;21053;50.848;4.652;2023-01-04T11:40:23;13.70;99.90
34837;DHT22;21053;50.848;4.652;2023-01-04T11:43:10;13.60;99.90
34837;DHT22;21053;50.848;4.652;2023-01-04T11:45:37;13.60;99.90
34837;DHT22;21053;50.848;4.652;2023-01-04T11:48:14;13.60;99.90
34837;DHT22;21053;50.848;4.652;2023-01-04T11:50:49;13.60;99.90
34837;DHT22;21053;50.848;4.652;2023-01-04T11:58:34;13.60;99.90
34837;DHT22;21053;50.848;4.652;2023-01-04T12:01:01;13.60;99.90
34837;DHT22;21053;50.848;4.652;2023-01-04T12:03:35;13.50;99.90
34837;DHT22;21053;50.848;4.652;2023-01-04T12:08:54;13.50;99.90
34837;DHT22;21053;50.848;4.652;2023-01-04T12:11:41;13.50;99.90
34837;DHT22;21053;50.848;4.652;2023-01-04T12:17:03;13.40;99.90
34837;DHT22;21053;50.848;4.652;2023-01-04T12:19:33;13.40;99.90
34837;DHT22;21053;50.848;4.652;2023-01-04T12:22:16;13.50;99.90
34837;DHT22;21053;50.848;4.652;2023-01-04T12:24:45;13.50;99.90
34837;DHT22;21053;50.848;4.652;2023-01-04T12:27:13;13.50;99.90
34837;DHT22;21053;50.848;4.652;2023-01-04T12:29:59;13.60;99.90
34837;DHT22;21053;50.848;4.652;2023-01-04T12:34:54;13.70;99.90
34837;DHT22;21053;50.848;4.652;2023-01-04T12:45:46;13.50;99.90
34837;DHT22;21053;50.848;4.652;2023-01-04T12:48:37;13.60;99.90
34837;DHT22;21053;50.848;4.652;2023-01-04T12:51:24;13.70;99.90
34837;DHT22;21053;50.848;4.652;2023-01-04T12:54:03;13.70;99.90
34837;DHT22;21053;50.848;4.652;2023-01-04T13:02:15;13.80;99.90
34837;DHT22;21053;50.848;4.652;2023-01-04T13:05:00;13.80;99.90
34837;DHT22;21053;50.848;4.652;2023-01-04T13:07:57;13.70;99.90
34837;DHT22;21053;50.848;4.652;2023-01-04T13:10:41;13.90;99.90
34837;DHT22;21053;50.848;4.652;2023-01-04T13:13:40;13.80;99.90
34837;DHT22;21053;50.848;4.652;2023-01-04T13:16:34;13.70;99.90
34837;DHT22;21053;50.848;4.652;2023-01-04T13:19:21;13.80;99.90
34837;DHT22;21053;50.848;4.652;2023-01-04T13:21:53;13.90;99.90
34837;DHT22;21053;50.848;4.652;2023-01-04T13:24:32;13.80;99.90
34837;DHT22;21053;50.848;4.652;2023-01-04T13:27:07;13.70;99.90
34837;DHT22;21053;50.848;4.652;2023-01-04T13:29:34;13.80;99.90
34837;DHT22;21053;50.848;4.652;2023-01-04T13:32:14;13.70;99.90
34837;DHT22;21053;50.848;4.652;2023-01-04T13:34:49;13.80;99.90
34837;DHT22;21053;50.848;4.652;2023-01-04T13:37:35;13.80;99.90
34837;DHT22;21053;50.848;4.652;2023-01-04T13:40:24;14.00;99.90
34837;DHT22;21053;50.848;4.652;2023-01-04T13:44:01;14.10;99.90
34837;DHT22;21053;50.848;4.652;2023-01-04T13:46:23;14.10;99.90
34837;DHT22;21053;50.848;4.652;2023-01-04T13:48:56;14.10;99.90
34837;DHT22;21053;50.848;4.652;2023-01-04T13:51:32;14.20;99.90
34837;DHT22;21053;50.848;4.652;2023-01-04T13:54:04;14.20;99.90
34837;DHT22;21053;50.848;4.652;2023-01-04T13:56:36;14.20;99.90
34837;DHT22;21053;50.848;4.652;2023-01-04T13:59:07;14.10;99.90
34837;DHT22;21053;50.848;4.652;2023-01-04T14:01:40;13.90;99.90
34837;DHT22;21053;50.848;4.652;2023-01-04T14:04:33;14.00;99.90
34837;DHT22;21053;50.848;4.652;2023-01-04T14:07:02;14.10;99.90
34837;DHT22;21053;50.848;4.652;2023-01-04T14:09:31;14.20;99.90
34837;DHT22;21053;50.848;4.652;2023-01-04T14:12:07;14.20;99.90
34837;DHT22;21053;50.848;4.652;2023-01-04T14:17:34;14.00;99.90
34837;DHT22;21053;50.848;4.652;2023-01-04T14:20:04;14.10;99.90
34837;DHT22;21053;50.848;4.652;2023-01-04T14:25:37;14.10;99.90
34837;DHT22;21053;50.848;4.652;2023-01-04T14:28:24;14.20;99.90
34837;DHT22;21053;50.848;4.652;2023-01-04T14:33:42;14.10;99.90
34837;DHT22;21053;50.848;4.652;2023-01-04T14:36:13;14.10;99.90
34837;DHT22;21053;50.848;4.652;2023-01-04T14:38:43;14.10;99.90
34837;DHT22;21053;50.848;4.652;2023-01-04T14:44:23;14.20;99.90
34837;DHT22;21053;50.848;4.652;2023-01-04T14:46:53;14.20;99.90
34837;DHT22;21053;50.848;4.652;2023-01-04T14:49:22;14.30;99.90
34837;DHT22;21053;50.848;4.652;2023-01-04T14:51:55;14.10;99.90
34837;DHT22;21053;50.848;4.652;2023-01-04T14:54:23;14.10;99.90
34837;DHT22;21053;50.848;4.652;2023-01-04T14:56:52;13.90;99.90
34837;DHT22;21053;50.848;4.652;2023-01-04T14:59:21;14.10;99.90
34837;DHT22;21053;50.848;4.652;2023-01-04T15:01:52;14.00;99.90
34837;DHT22;21053;50.848;4.652;2023-01-04T15:04:18;14.00;99.90
34837;DHT22;21053;50.848;4.652;2023-01-04T15:09:21;13.90;99.90
34837;DHT22;21053;50.848;4.652;2023-01-04T15:11:48;13.90;99.90
34837;DHT22;21053;50.848;4.652;2023-01-04T15:14:16;13.80;99.90
34837;DHT22;21053;50.848;4.652;2023-01-04T15:16:43;13.90;99.90
34837;DHT22;21053;50.848;4.652;2023-01-04T15:19:09;13.90;99.90
34837;DHT22;21053;50.848;4.652;2023-01-04T15:21:38;13.80;99.90
34837;DHT22;21053;50.848;4.652;2023-01-04T15:24:05;13.90;99.90
34837;DHT22;21053;50.848;4.652;2023-01-04T15:26:32;13.80;99.90
34837;DHT22;21053;50.848;4.652;2023-01-04T15:28:58;13.80;99.90
34837;DHT22;21053;50.848;4.652;2023-01-04T15:31:27;13.80;99.90
34837;DHT22;21053;50.848;4.652;2023-01-04T15:33:54;13.80;99.90
34837;DHT22;21053;50.848;4.652;2023-01-04T15:36:22;13.60;99.90
34837;DHT22;21053;50.848;4.652;2023-01-04T15:38:53;13.60;99.90
34837;DHT22;21053;50.848;4.652;2023-01-04T15:41:24;13.70;99.90
34837;DHT22;21053;50.848;4.652;2023-01-04T15:44:09;13.70;99.90
34837;DHT22;21053;50.848;4.652;2023-01-04T15:46:35;13.50;99.90
34837;DHT22;21053;50.848;4.652;2023-01-04T15:49:01;13.50;99.90
34837;DHT22;21053;50.848;4.652;2023-01-04T15:51:35;13.60;99.90
34837;DHT22;21053;50.848;4.652;2023-01-04T15:54:04;13.60;99.90
34837;DHT22;21053;50.848;4.652;2023-01-04T15:56:30;13.50;99.90
34837;DHT22;21053;50.848;4.652;2023-01-04T15:58:59;13.40;99.90
34837;DHT22;21053;50.848;4.652;2023-01-04T16:01:26;13.60;99.90
34837;DHT22;21053;50.848;4.652;2023-01-04T16:03:52;13.60;99.90
34837;DHT22;21053;50.848;4.652;2023-01-04T16:06:19;13.50;99.90
34837;DHT22;21053;50.848;4.652;2023-01-04T16:08:45;13.50;99.90
34837;DHT22;21053;50.848;4.652;2023-01-04T16:11:17;13.60;99.90
34837;DHT22;21053;50.848;4.652;2023-01-04T16:13:48;13.60;99.90
34837;DHT22;21053;50.848;4.652;2023-01-04T16:16:17;13.70;99.90
34837;DHT22;21053;50.848;4.652;2023-01-04T16:18:46;13.70;99.90
34837;DHT22;21053;50.848;4.652;2023-01-04T16:21:14;13.60;99.90
34837;DHT22;21053;50.848;4.652;2023-01-04T16:23:40;13.60;99.90
34837;DHT22;21053;50.848;4.652;2023-01-04T16:28:33;13.60;99.90
34837;DHT22;21053;50.848;4.652;2023-01-04T16:30:59;13.60;99.90
34837;DHT22;21053;50.848;4.652;2023-01-04T16:33:26;13.60;99.90
34837;DHT22;21053;50.848;4.652;2023-01-04T16:36:06;13.50;99.90
34837;DHT22;21053;50.848;4.652;2023-01-04T16:38:37;13.50;99.90
34837;DHT22;21053;50.848;4.652;2023-01-04T16:41:22;13.40;99.90
34837;DHT22;21053;50.848;4.652;2023-01-04T16:43:54;13.60;99.90
34837;DHT22;21053;50.848;4.652;2023-01-04T16:46:35;13.50;99.90
34837;DHT22;21053;50.848;4.652;2023-01-04T16:49:10;13.30;99.90
34837;DHT22;21053;50.848;4.652;2023-01-04T16:51:41;13.40;99.90
34837;DHT22;21053;50.848;4.652;2023-01-04T16:54:15;13.50;99.90
34837;DHT22;21053;50.848;4.652;2023-01-04T16:56:46;13.60;99.90
34837;DHT22;21053;50.848;4.652;2023-01-04T16:59:16;13.50;99.90
34837;DHT22;21053;50.848;4.652;2023-01-04T17:01:46;13.60;99.90
34837;DHT22;21053;50.848;4.652;2023-01-04T17:04:18;13.50;99.90
34837;DHT22;21053;50.848;4.652;2023-01-04T17:06:48;13.60;99.90
34837;DHT22;21053;50.848;4.652;2023-01-04T17:09:20;13.60;99.90
34837;DHT22;21053;50.848;4.652;2023-01-04T17:11:48;13.60;99.90
34837;DHT22;21053;50.848;4.652;2023-01-04T17:14:29;13.50;99.90
34837;DHT22;21053;50.848;4.652;2023-01-04T17:16:56;13.50;99.90
34837;DHT22;21053;50.848;4.652;2023-01-04T17:19:21;13.50;99.90
34837;DHT22;21053;50.848;4.652;2023-01-04T17:21:48;13.50;99.90
34837;DHT22;21053;50.848;4.652;2023-01-04T17:24:14;13.40;99.90
34837;DHT22;21053;50.848;4.652;2023-01-04T17:26:41;13.30;99.90
34837;DHT22;21053;50.848;4.652;2023-01-04T17:29:13;13.40;99.90
34837;DHT22;21053;50.848;4.652;2023-01-04T17:31:43;13.40;99.90
34837;DHT22;21053;50.848;4.652;2023-01-04T17:34:12;13.40;99.90
34837;DHT22;21053;50.848;4.652;2023-01-04T17:36:45;13.50;99.90
34837;DHT22;21053;50.848;4.652;2023-01-04T17:39:12;13.60;99.90
34837;DHT22;21053;50.848;4.652;2023-01-04T17:41:40;13.60;99.90
34837;DHT22;21053;50.848;4.652;2023-01-04T17:44:09;13.70;99.90
34837;DHT22;21053;50.848;4.652;2023-01-04T17:46:38;13.60;99.90
34837;DHT22;21053;50.848;4.652;2023-01-04T17:49:10;13.60;99.90
34837;DHT22;21053;50.848;4.652;2023-01-04T17:51:39;13.50;99.90
34837;DHT22;21053;50.848;4.652;2023-01-04T17:54:08;13.60;99.90